ホノルル の空港の天気 - METARとTAF

ホノルル国際空港 ( PHNL / HNL ) - アメリカ ハワイ州ホノルル
飛行場実況気象(Metar)
観測時間10/25 09:53 HST (10/25 19:53 UTC)
風向・風速南南西 3m/s
視程10km以上
天気現象
少しの雲 雲底高度 700m
少しの雲 雲底高度 1370m
気温27.2℃
湿度69%
気圧1014.8hPa
METARPHNL 251953Z 21006KT 10SM FEW023 FEW045 27/21 A2997 RMK AO2 SLP148 T02720211
過去の天気等 Google飛行場航空写真 Wunderground天気予報

過去48時間のMETAR

飛行場予報(TAF)
発表時間: 10/25 07:20 HST (10/25 17:20 UTC)
予報対象時間: 25日8時 HST ~ 26日14時 HST
風向・風速北北西 2m/s
視程10km以上
少しの雲 雲底高度 760m
25日10時 HST から
風向・風速南東 5m/s
視程10km以上
全天の4割程度の雲 雲底高度 760m
全天の4割程度の雲 雲底高度 1370m
25日20時 HST から
風向・風速不定 2m/s
視程10km以上
少しの雲 雲底高度 760m
全天の8割程度の雲 雲底高度 1370m
26日10時 HST から
風向・風速南 5m/s
視程10km以上
全天の4割程度の雲 雲底高度 760m
全天の8割程度の雲 雲底高度 1370m
PHNL 251720Z 2518/2624 34004KT P6SM FEW025
FM252000 13010KT P6SM SCT025 SCT045
FM260600 VRB04KT P6SM FEW025 BKN045
FM262000 19009KT P6SM SCT025 BKN045